Linden, TN (37096)

2:00 PM CDT on July 29, 2016 (GMT -0500)
ParsonsWeather.com | | Change Station

Elev 494 ft 35.65 °N, 88.13 °W | Updated 11 seconds ago

Mostly Cloudy
Mostly Cloudy
83.1 °F
Feels Like 89 °F
N
1.2
Wind Variable Wind from WSW
Gusts 1.2 mph

Today
High -- | Low -- °F
--% Chance of Precip.
Yesterday
High -- | Low -- °F
Precip. -- in
Pressure 29.97 in
Visibility 10.0 miles
Clouds Mostly Cloudy 2700 ft
Mostly Cloudy 3300 ft
Heat Index 89 °F
Dew Point 74 °F
Humidity 73%
Rainfall 0.00 in
Snow Depth Not available.
5:57 AM 7:57 PM
Waning Crescent, 20% visible
METAR KMRC 291855Z AUTO 21008KT 10SM BKN027 BKN033 30/26 A2997 RMK
Pressure 29.97 in
Visibility 10.0 miles
Clouds Mostly Cloudy 2700 ft
Mostly Cloudy 3300 ft
Heat Index 89 °F
Dew Point 74 °F
Humidity 73%
Rainfall 0.00 in
Snow Depth Not available.
5:57 AM 7:57 PM
Waning Crescent, 20% visible
METAR KMRC 291855Z AUTO 21008KT 10SM BKN027 BKN033 30/26 A2997 RMK

10-Day Weather Forecast

Almanac

Astronomy

Jul. 29, 2016 Rise Set
Actual Time
Civil Twilight
Nautical Twilight
Astronomical Twilight
Moon
Length of Visible Light
Length of Day
Tomorrow will be .
, % of the Moon is Illuminated

Today's Extremes

State Highs State Lows

Community

WunderPhotos

Upload Photos

1,928,393 photos uploaded!

WunderBlog® & News

Nearby

Air Quality

  Air Quality AQ Index Pollutant
Not available.

Snow Depth

Station Depth Elevation

Earthquake Activity

City Distance Mag. Time & Date
Minimum magnitude displayed is 2.5.

Coastal Water Temperatures

Place Temperature

Stations

Nearby Weather Stations

Station Location Temp. Windchill Dew Point Humidity Wind Precip. Elev Updated Type
                   

Watches & Warnings

There are currently no watches in effect.